Time;durP1;ratioP1;P1;durP2;ratioP2;P2;SDS_P1;SDS_P2;PMS_P1;PMS_P2;Temp;Humidity;BMP_temperature;BMP_pressure;BME280_temperature;BME280_humidity;BME280_pressure;Samples;Min_cycle;Max_cycle;Signal;HPM_P1;HPM_P2
2023/03/31 00:00:32;;;;;;;7.80;3.93;;;;;;;10.66;56.44;64065.13;5034489;28;20688;-53
2023/03/31 00:02:58;;;;;;;11.53;5.43;;;;;;;10.65;57.15;64061.50;5034508;28;20197;-59
2023/03/31 00:05:27;;;;;;;11.13;6.17;;;;;;;10.60;59.07;64058.56;5033788;28;20279;-58
2023/03/31 00:07:54;;;;;;;148.33;70.23;;;;;;;10.49;59.41;64044.53;5016308;28;20719;-53
2023/03/31 00:10:19;;;;;;;19.43;10.97;;;;;;;10.60;58.52;64056.59;5033442;28;20221;-52
2023/03/31 00:12:45;;;;;;;25.13;13.53;;;;;;;10.42;59.16;64036.91;5033678;28;20194;-53
2023/03/31 00:15:11;;;;;;;91.90;41.07;;;;;;;10.56;59.53;64052.22;5034183;28;20294;-58
2023/03/31 00:17:36;;;;;;;21.93;12.37;;;;;;;10.51;59.67;64046.75;5033775;28;20255;-58
2023/03/31 00:20:04;;;;;;;21.27;10.47;;;;;;;10.56;59.21;64054.19;5016225;28;20218;-54
2023/03/31 00:22:30;;;;;;;7.87;5.27;;;;;;;10.70;59.10;64067.00;5033449;28;20219;-54
2023/03/31 00:24:55;;;;;;;7.37;5.00;;;;;;;10.48;59.19;64045.44;5034091;28;20221;-53
2023/03/31 00:27:21;;;;;;;9.23;4.57;;;;;;;10.43;58.10;64040.50;5033304;28;20569;-53
2023/03/31 00:29:49;;;;;;;9.10;5.10;;;;;;;10.46;59.54;64040.72;5033751;28;20662;-53
2023/03/31 00:32:15;;;;;;;16.07;7.97;;;;;;;10.43;59.23;64037.97;5033536;28;20213;-52
2023/03/31 00:34:41;;;;;;;8.73;6.00;;;;;;;10.46;58.88;64040.72;5033610;28;20213;-56
2023/03/31 00:37:08;;;;;;;10.83;6.33;;;;;;;10.06;59.98;63998.00;5033263;28;20278;-57
2023/03/31 00:39:35;;;;;;;12.93;6.67;;;;;;;9.75;60.16;63964.13;5033370;28;20280;-52
2023/03/31 00:42:02;;;;;;;24.47;12.90;;;;;;;9.89;59.90;63979.44;5015493;28;20626;-53
2023/03/31 00:44:33;;;;;;;22.63;12.53;;;;;;;9.75;60.13;63963.56;5033294;28;20217;-54
2023/03/31 00:47:14;;;;;;;9.73;5.10;;;;;;;9.73;61.00;63966.41;5033556;28;20194;-54
2023/03/31 00:49:44;;;;;;;26.83;11.50;;;;;;;9.94;61.53;63984.34;5033193;28;20217;-58
2023/03/31 00:52:16;;;;;;;9.63;4.83;;;;;;;9.98;60.33;63989.25;5033440;28;20190;-58
2023/03/31 00:54:45;;;;;;;8.47;4.17;;;;;;;9.93;59.20;63983.81;5032753;28;20225;-58
2023/03/31 00:57:12;;;;;;;11.03;6.37;;;;;;;9.88;59.43;63980.28;5033350;28;20189;-57
2023/03/31 00:59:45;;;;;;;11.77;5.43;;;;;;;10.12;59.28;64004.06;5033098;28;20218;-56
2023/03/31 01:02:13;;;;;;;5.83;3.63;;;;;;;10.12;58.65;64004.59;5032891;28;20773;-58
2023/03/31 01:04:46;;;;;;;5.13;3.47;;;;;;;10.21;56.37;64013.91;5032964;28;20214;-52
2023/03/31 01:07:38;;;;;;;27.10;12.27;;;;;;;10.11;57.53;64008.56;5033154;28;20175;-52
2023/03/31 01:10:04;;;;;;;7.07;4.60;;;;;;;10.24;56.37;64017.19;5032574;28;20230;-58
2023/03/31 01:12:33;;;;;;;8.67;3.70;;;;;;;10.26;57.54;64021.34;5033166;28;20260;-55
2023/03/31 01:14:59;;;;;;;6.27;3.20;;;;;;;10.28;57.51;64021.03;5032940;28;20305;-57
2023/03/31 01:17:27;;;;;;;10.70;4.63;;;;;;;10.30;57.97;64025.72;5032738;28;20239;-55
2023/03/31 01:20:23;;;;;;;11.57;5.03;;;;;;;10.43;58.28;64037.97;5032931;28;20218;-56
2023/03/31 01:23:19;;;;;;;4.83;3.20;;;;;;;10.53;57.98;64048.94;5032646;28;20183;-56
2023/03/31 01:25:49;;;;;;;5.70;3.23;;;;;;;10.48;58.64;64045.44;5032766;28;20244;-57
2023/03/31 01:28:21;;;;;;;7.90;3.47;;;;;;;10.48;58.64;64042.91;5032534;28;20241;-61
2023/03/31 01:31:04;;;;;;;5.87;3.10;;;;;;;10.49;59.71;64047.06;5032590;28;20222;-53
2023/03/31 01:33:48;;;;;;;8.47;3.37;;;;;;;10.55;59.64;64053.63;5032319;28;20196;-52
2023/03/31 01:36:41;;;;;;;49.93;22.20;;;;;;;10.64;59.82;64060.44;5032393;28;20558;-56
2023/03/31 01:39:19;;;;;;;20.63;8.30;;;;;;;10.66;59.56;64062.63;5032395;28;20583;-58
2023/03/31 01:42:12;;;;;;;24.57;8.67;;;;;;;10.41;59.97;64035.25;5032730;28;20213;-53
2023/03/31 01:44:47;;;;;;;14.67;6.97;;;;;;;10.59;59.32;64052.97;5032465;28;20210;-55
2023/03/31 01:47:24;;;;;;;12.20;4.83;;;;;;;10.60;59.17;64059.13;5033181;28;20197;-53
2023/03/31 01:50:21;;;;;;;12.10;4.20;;;;;;;10.78;58.60;64076.31;5032407;28;20209;-52
2023/03/31 01:52:55;;;;;;;7.10;3.40;;;;;;;10.71;59.21;64065.56;5032491;28;20236;-54
2023/03/31 01:55:47;;;;;;;10.30;5.43;;;;;;;10.60;60.50;64059.13;5032196;28;20214;-52
2023/03/31 01:58:36;;;;;;;9.33;5.03;;;;;;;10.57;59.82;64052.75;5032108;28;20182;-53
2023/03/31 02:01:12;;;;;;;9.37;4.77;;;;;;;10.46;60.71;64043.78;5031808;28;20283;-53
2023/03/31 02:03:45;;;;;;;7.93;4.50;;;;;;;10.29;61.36;64022.09;5032046;28;20197;-53
2023/03/31 02:06:21;;;;;;;11.50;4.53;;;;;;;10.44;61.49;64039.09;5031284;28;20209;-53
2023/03/31 02:08:55;;;;;;;7.43;4.67;;;;;;;10.59;60.75;64054.94;5032096;28;20249;-58
2023/03/31 02:11:29;;;;;;;13.27;5.03;;;;;;;10.54;60.22;64052.00;5032302;28;20272;-53
2023/03/31 02:13:56;;;;;;;14.43;5.13;;;;;;;10.44;61.37;64041.59;5031812;28;20595;-60
2023/03/31 02:16:26;;;;;;;12.20;4.93;;;;;;;10.11;62.26;64002.97;5031944;28;20327;-52
2023/03/31 02:19:01;;;;;;;10.20;5.57;;;;;;;10.43;61.68;64037.97;5031990;28;20640;-52
2023/03/31 02:21:28;;;;;;;8.63;4.30;;;;;;;10.08;62.04;64002.72;5032029;28;20645;-53
2023/03/31 02:23:55;;;;;;;8.77;4.83;;;;;;;9.96;63.60;63989.03;5031976;28;20214;-53
2023/03/31 02:26:27;;;;;;;10.53;5.40;;;;;;;10.16;63.79;64010.41;5031692;28;20186;-53
2023/03/31 02:28:52;;;;;;;10.93;5.47;;;;;;;9.85;62.94;63972.00;5031719;28;20595;-52
2023/03/31 02:32:05;;;;;;;15.77;6.50;;;;;;;9.33;67.21;63920.72;5031659;28;20193;-57
2023/03/31 02:34:31;;;;;;;15.77;6.47;;;;;;;9.52;70.88;63938.41;4951600;28;20220;-57
2023/03/31 02:36:56;;;;;;;15.87;6.90;;;;;;;9.62;68.69;63949.91;4951344;29;20701;-57
2023/03/31 02:39:29;;;;;;;18.10;7.23;;;;;;;9.61;68.69;63951.31;4993340;28;20217;-58
2023/03/31 02:41:56;;;;;;;15.20;7.73;;;;;;;9.60;71.23;63949.66;5031592;28;20309;-53
2023/03/31 02:44:22;;;;;;;18.93;7.37;;;;;;;9.64;73.13;63954.03;5031681;28;20586;-57
2023/03/31 02:46:49;;;;;;;17.27;6.73;;;;;;;9.65;73.15;63952.63;5031662;28;20204;-53
2023/03/31 02:49:16;;;;;;;19.33;6.47;;;;;;;9.51;75.25;63939.84;5013769;28;20226;-54
2023/03/31 02:52:10;;;;;;;12.70;5.83;;;;;;;9.61;78.33;63951.31;5031601;28;20190;-51
2023/03/31 02:55:02;;;;;;;10.83;5.23;;;;;;;9.53;79.71;63942.03;5002672;28;20320;-55
2023/03/31 02:57:48;;;;;;;10.00;5.07;;;;;;;9.36;81.60;63921.47;5022749;28;20190;-52
2023/03/31 03:00:32;;;;;;;15.27;5.03;;;;;;;9.46;84.61;63934.38;5031537;28;20297;-53
2023/03/31 03:03:25;;;;;;;8.00;4.07;;;;;;;9.51;80.91;63940.41;5031223;28;20189;-53
2023/03/31 03:06:01;;;;;;;9.17;3.40;;;;;;;9.64;82.74;63954.03;5031117;28;20588;-53
2023/03/31 03:08:57;;;;;;;9.10;3.13;;;;;;;9.71;82.47;63962.25;5013163;28;20210;-52
2023/03/31 03:11:45;;;;;;;5.23;2.33;;;;;;;9.82;80.82;63971.78;5031406;28;20201;-58
2023/03/31 03:14:41;;;;;;;5.27;3.00;;;;;;;9.99;82.15;63992.34;5031004;28;20217;-52
2023/03/31 03:17:13;;;;;;;4.10;2.50;;;;;;;9.51;80.45;63937.88;5030934;28;20182;-52
2023/03/31 03:19:40;;;;;;;6.10;3.00;;;;;;;10.18;83.56;64010.63;5031111;28;20225;-53
2023/03/31 03:22:06;;;;;;;5.83;3.00;;;;;;;10.34;83.27;64027.59;5030786;28;20193;-53
2023/03/31 03:24:33;;;;;;;4.10;2.90;;;;;;;10.35;82.02;64031.75;5031409;28;20226;-57
2023/03/31 03:26:59;;;;;;;7.03;3.10;;;;;;;10.45;83.94;64040.16;5013209;28;20686;-52
2023/03/31 03:29:26;;;;;;;6.67;3.30;;;;;;;10.46;83.16;64038.19;5030758;28;20222;-54
2023/03/31 03:31:51;;;;;;;9.23;3.00;;;;;;;10.49;81.72;64044.53;5031141;28;20726;-54
2023/03/31 03:34:18;;;;;;;7.87;2.90;;;;;;;10.71;86.60;64066.09;5031002;28;20319;-56
2023/03/31 03:36:45;;;;;;;7.30;2.87;;;;;;;10.74;83.52;64073.88;5030926;28;20205;-58
2023/03/31 03:39:11;;;;;;;6.50;4.10;;;;;;;10.85;84.82;64083.94;5031226;28;20222;-56
2023/03/31 03:41:37;;;;;;;10.63;5.97;;;;;;;10.86;86.46;64085.06;5030865;28;20570;-55
2023/03/31 03:44:02;;;;;;;9.90;4.87;;;;;;;10.60;78.81;64056.03;5012869;28;20240;-53
2023/03/31 03:46:28;;;;;;;6.90;3.77;;;;;;;10.18;78.53;64010.09;5030855;28;20244;-54
2023/03/31 03:48:53;;;;;;;7.67;3.30;;;;;;;10.10;78.73;64004.38;5030368;28;20218;-57
2023/03/31 03:51:19;;;;;;;4.27;3.27;;;;;;;9.99;80.54;63992.88;5030516;28;20187;-56
2023/03/31 03:53:44;;;;;;;8.07;3.90;;;;;;;10.01;82.03;63994.53;5030595;28;20184;-57
2023/03/31 03:56:10;;;;;;;5.13;3.67;;;;;;;10.20;82.71;64015.31;5030632;28;20182;-56
2023/03/31 03:58:35;;;;;;;12.67;4.00;;;;;;;10.02;84.18;63993.63;5031194;28;20187;-58
2023/03/31 04:01:03;;;;;;;8.30;4.30;;;;;;;10.07;83.76;63999.13;5030780;28;20178;-53
2023/03/31 04:03:28;;;;;;;7.37;3.37;;;;;;;9.87;82.67;63979.75;5030311;28;20201;-54
2023/03/31 04:05:54;;;;;;;6.60;3.60;;;;;;;10.01;82.53;63997.59;5030505;28;20206;-53
2023/03/31 04:08:19;;;;;;;7.97;4.13;;;;;;;10.23;82.40;64023.09;5030469;28;20198;-55
2023/03/31 04:10:47;;;;;;;7.47;3.73;;;;;;;10.27;81.21;64023.00;5030426;28;20633;-57
2023/03/31 04:13:16;;;;;;;5.93;3.70;;;;;;;10.27;80.54;64023.00;5030492;28;20191;-57
2023/03/31 04:15:42;;;;;;;9.70;5.40;;;;;;;10.17;82.82;64014.00;5030100;28;20209;-58
2023/03/31 04:18:09;;;;;;;8.07;4.20;;;;;;;10.19;81.40;64013.69;5030236;28;20232;-57
2023/03/31 04:20:36;;;;;;;7.70;4.37;;;;;;;10.22;80.74;64017.50;5012667;28;20215;-57
2023/03/31 04:23:08;;;;;;;6.10;3.37;;;;;;;10.14;79.86;64008.75;5012751;28;20226;-53
2023/03/31 04:25:37;;;;;;;6.83;3.93;;;;;;;10.29;79.76;64025.19;5030335;28;20260;-54
2023/03/31 04:28:05;;;;;;;6.13;3.57;;;;;;;10.53;82.02;64051.44;5031003;28;20714;-53
2023/03/31 04:30:31;;;;;;;8.40;3.73;;;;;;;10.50;80.86;64045.66;5034661;28;20706;-56
2023/03/31 04:33:02;;;;;;;7.83;4.50;;;;;;;10.50;79.94;64047.63;4999495;28;20582;-56
2023/03/31 04:35:41;;;;;;;10.67;4.63;;;;;;;10.73;77.69;64068.28;5033574;28;20289;-59
2023/03/31 04:38:07;;;;;;;11.03;4.50;;;;;;;10.69;79.69;64068.97;5033521;28;20197;-57
2023/03/31 04:40:34;;;;;;;8.60;3.53;;;;;;;10.65;79.52;64064.56;5033378;28;20210;-54
2023/03/31 04:43:00;;;;;;;7.77;4.03;;;;;;;10.71;79.70;64071.16;5033302;28;20206;-54
2023/03/31 04:45:25;;;;;;;8.00;4.53;;;;;;;10.89;77.86;64090.31;5034045;28;20638;-53
2023/03/31 04:47:51;;;;;;;11.27;4.00;;;;;;;10.99;78.29;64099.28;5033292;28;20214;-53
2023/03/31 04:50:16;;;;;;;9.70;4.47;;;;;;;10.86;79.13;64087.59;5033662;28;20322;-52
2023/03/31 04:52:43;;;;;;;12.17;6.07;;;;;;;11.19;100.00;64122.63;5033061;28;20212;-58
2023/03/31 04:55:08;;;;;;;11.20;7.00;;;;;;;12.38;100.00;64252.50;5033148;28;20218;-53
2023/03/31 04:57:34;;;;;;;9.73;4.83;;;;;;;12.56;83.57;64272.78;5032855;28;20216;-55
2023/03/31 04:59:59;;;;;;;10.87;4.37;;;;;;;12.17;79.87;64226.94;5015092;28;20715;-59
2023/03/31 05:02:25;;;;;;;6.90;3.80;;;;;;;11.85;81.20;64192.44;5033267;28;20190;-54
2023/03/31 05:04:50;;;;;;;7.93;4.43;;;;;;;11.73;81.82;64179.28;5032893;28;20214;-54
2023/03/31 05:07:17;;;;;;;9.60;5.03;;;;;;;11.31;82.02;64135.75;5032941;28;20194;-59
2023/03/31 05:09:43;;;;;;;9.00;5.03;;;;;;;10.91;87.39;64089.97;5015241;28;20210;-60
2023/03/31 05:12:09;;;;;;;10.33;4.93;;;;;;;10.99;89.26;64101.25;5033034;28;20194;-54
2023/03/31 05:14:34;;;;;;;8.03;4.67;;;;;;;11.28;85.24;64129.94;5032854;28;20272;-53
2023/03/31 05:17:00;;;;;;;6.77;3.83;;;;;;;11.10;86.18;64113.31;5032990;28;20717;-54
2023/03/31 05:19:25;;;;;;;7.23;3.40;;;;;;;10.97;85.61;64097.09;5032762;28;20214;-59
2023/03/31 05:21:50;;;;;;;5.63;4.30;;;;;;;10.86;79.87;64087.03;5032813;28;20231;-60
2023/03/31 05:24:16;;;;;;;8.43;4.30;;;;;;;10.38;80.23;64035.03;5032619;28;20218;-59
2023/03/31 05:26:47;;;;;;;8.10;4.43;;;;;;;10.29;82.45;64025.19;5015098;28;20178;-60
2023/03/31 05:29:12;;;;;;;12.33;4.97;;;;;;;10.68;91.23;64067.31;5032650;28;20230;-60
2023/03/31 05:31:38;;;;;;;7.67;4.43;;;;;;;10.45;86.17;64040.16;5032608;28;20248;-55
2023/03/31 05:34:03;;;;;;;9.43;4.43;;;;;;;10.26;88.40;64018.84;5032525;28;20214;-59
2023/03/31 05:36:29;;;;;;;6.37;4.17;;;;;;;10.55;87.00;64053.63;5032535;28;20182;-59
2023/03/31 05:38:54;;;;;;;12.30;5.23;;;;;;;10.84;84.64;64084.84;5031843;28;20678;-59
2023/03/31 05:41:19;;;;;;;11.57;4.90;;;;;;;10.56;83.82;64051.66;5031909;28;20652;-55
2023/03/31 05:43:45;;;;;;;9.93;5.13;;;;;;;10.29;87.74;64024.63;5032277;28;20676;-54
2023/03/31 05:46:11;;;;;;;12.27;5.73;;;;;;;10.53;90.36;64050.88;5032295;28;20671;-56
2023/03/31 05:48:36;;;;;;;11.13;5.17;;;;;;;10.63;92.28;64061.84;5031976;28;20214;-55
2023/03/31 05:51:02;;;;;;;16.27;5.93;;;;;;;10.68;87.40;64064.81;5032534;28;20191;-60
2023/03/31 05:53:28;;;;;;;12.70;7.33;;;;;;;10.63;89.90;64059.31;5032196;28;20587;-60
2023/03/31 05:56:01;;;;;;;16.23;7.03;;;;;;;10.64;91.99;64062.94;5032247;28;20213;-61
2023/03/31 05:58:28;;;;;;;12.77;7.37;;;;;;;10.76;93.21;64076.09;5032163;28;20190;-56
2023/03/31 06:01:08;;;;;;;16.93;6.07;;;;;;;10.92;92.35;64091.06;5039584;22;20230;-55
2023/03/31 06:03:36;;;;;;;10.67;6.10;;;;;;;10.82;91.46;64082.66;5031886;28;20274;-56
2023/03/31 06:06:04;;;;;;;9.87;6.13;;;;;;;11.25;88.95;64126.66;5032100;28;20273;-60
2023/03/31 06:08:29;;;;;;;13.17;5.80;;;;;;;11.25;89.73;64124.69;5032160;28;20210;-58
2023/03/31 06:10:55;;;;;;;11.73;5.20;;;;;;;11.22;93.67;64125.91;5031933;28;20216;-55
2023/03/31 06:13:21;;;;;;;10.67;5.50;;;;;;;11.45;89.89;64149.09;5031968;28;20566;-56
2023/03/31 06:15:57;;;;;;;13.60;6.27;;;;;;;11.50;84.91;64156.56;5032072;28;20633;-59
2023/03/31 06:18:23;;;;;;;17.43;6.07;;;;;;;11.18;89.19;64122.06;5031928;28;20190;-58
2023/03/31 06:20:50;;;;;;;14.37;5.53;;;;;;;11.38;84.17;64138.38;5031799;28;20224;-59
2023/03/31 06:23:16;;;;;;;14.00;5.00;;;;;;;11.42;88.92;64148.34;5031660;28;20613;-59
2023/03/31 06:25:41;;;;;;;13.63;5.83;;;;;;;11.53;85.25;64157.34;5031610;28;20259;-59
2023/03/31 06:28:07;;;;;;;12.13;5.17;;;;;;;11.54;86.37;64161.50;5031709;28;20210;-55
2023/03/31 06:30:33;;;;;;;11.67;5.83;;;;;;;11.53;86.41;64155.34;5032063;28;20683;-55
2023/03/31 06:32:58;;;;;;;8.60;4.87;;;;;;;11.59;88.00;64163.91;5032056;28;20232;-55
2023/03/31 06:35:24;;;;;;;9.30;5.10;;;;;;;11.60;86.77;64162.47;5031850;28;20214;-55
2023/03/31 06:37:49;;;;;;;12.50;5.30;;;;;;;11.47;85.40;64153.28;5031831;28;20190;-55
2023/03/31 06:40:15;;;;;;;13.67;6.17;;;;;;;11.44;89.12;64150.56;5014103;28;20210;-60
2023/03/31 06:42:40;;;;;;;12.20;5.30;;;;;;;11.70;87.35;64175.97;5031885;28;20194;-59
2023/03/31 06:45:07;;;;;;;10.77;5.50;;;;;;;11.87;88.32;64196.59;5031388;28;20210;-54
2023/03/31 06:47:32;;;;;;;14.27;5.53;;;;;;;11.77;85.34;64184.22;5030257;28;20216;-60
2023/03/31 06:49:57;;;;;;;11.50;5.50;;;;;;;11.54;87.50;64158.97;5031263;28;20285;-57
2023/03/31 06:52:23;;;;;;;10.03;5.30;;;;;;;11.53;88.45;64159.88;5031038;28;20280;-55
2023/03/31 06:54:48;;;;;;;11.90;5.03;;;;;;;11.78;86.63;64182.22;5031637;28;20562;-61
2023/03/31 06:57:14;;;;;;;12.23;4.97;;;;;;;11.83;85.11;64192.75;5013445;28;20182;-58
2023/03/31 06:59:40;;;;;;;9.90;5.53;;;;;;;11.92;82.12;64202.63;5030967;28;20209;-56
2023/03/31 07:02:06;;;;;;;16.33;7.27;;;;;;;11.68;82.75;64171.81;5031316;28;20189;-59
2023/03/31 07:04:31;;;;;;;14.60;6.47;;;;;;;11.71;83.33;64179.59;5031109;28;20280;-59
2023/03/31 07:06:59;;;;;;;14.57;6.90;;;;;;;11.71;86.80;64180.16;5031157;28;20186;-59
2023/03/31 07:09:24;;;;;;;10.60;5.80;;;;;;;12.03;83.03;64214.69;5031066;28;20206;-59
2023/03/31 07:11:50;;;;;;;13.87;6.20;;;;;;;12.09;82.85;64218.72;5031208;28;20190;-60
2023/03/31 07:14:15;;;;;;;8.93;5.50;;;;;;;12.06;80.80;64214.91;5031060;28;20206;-59
2023/03/31 07:16:41;;;;;;;16.00;7.10;;;;;;;11.70;81.06;64178.50;5030709;28;20269;-60
2023/03/31 07:19:06;;;;;;;9.37;4.73;;;;;;;11.80;81.21;64190.00;5030918;28;20210;-59
2023/03/31 07:21:32;;;;;;;8.03;4.73;;;;;;;11.83;79.10;64192.75;5030780;28;20187;-60
2023/03/31 07:23:58;;;;;;;11.53;5.63;;;;;;;11.80;80.23;64186.94;5030930;28;20214;-59
2023/03/31 07:26:23;;;;;;;6.03;4.40;;;;;;;12.00;78.31;64208.84;5030901;28;20194;-59
2023/03/31 07:28:50;;;;;;;6.90;4.57;;;;;;;12.06;79.45;64217.44;5030777;28;20297;-59
2023/03/31 07:31:16;;;;;;;13.00;5.40;;;;;;;12.07;76.89;64213.47;5030742;28;20695;-58
2023/03/31 07:33:41;;;;;;;9.80;5.30;;;;;;;12.15;77.01;64227.28;5030869;28;20285;-59
2023/03/31 07:36:08;;;;;;;10.03;5.17;;;;;;;12.32;75.90;64245.94;5030722;28;20216;-58
2023/03/31 07:38:33;;;;;;;11.60;5.43;;;;;;;12.30;75.03;64241.22;5030786;28;20178;-55
2023/03/31 07:40:59;;;;;;;9.60;5.87;;;;;;;12.29;76.73;64240.66;5030668;28;20183;-55
2023/03/31 07:43:24;;;;;;;8.87;4.83;;;;;;;12.55;73.38;64266.09;5030681;28;20178;-57
2023/03/31 07:45:50;;;;;;;9.43;5.17;;;;;;;12.48;72.43;64260.94;5030693;28;20239;-58
2023/03/31 07:48:15;;;;;;;7.93;5.33;;;;;;;12.45;74.92;64255.69;5012829;28;20206;-61
2023/03/31 07:50:41;;;;;;;12.43;5.30;;;;;;;12.52;72.91;64265.34;5030478;28;20622;-58
2023/03/31 07:53:07;;;;;;;11.63;4.67;;;;;;;12.59;71.26;64276.09;5030982;28;20672;-58
2023/03/31 07:55:32;;;;;;;10.00;5.40;;;;;;;12.79;69.89;64296.91;5012822;28;20233;-58
2023/03/31 07:57:57;;;;;;;10.10;5.27;;;;;;;12.91;70.99;64310.63;5030501;28;20186;-58
2023/03/31 08:00:23;;;;;;;7.03;4.20;;;;;;;13.08;64.69;64329.31;5030978;28;20214;-57
2023/03/31 08:02:49;;;;;;;6.70;4.80;;;;;;;13.12;63.42;64331.19;5030890;28;20182;-57
2023/03/31 08:05:17;;;;;;;8.20;3.77;;;;;;;13.18;62.00;64337.75;5034143;28;20217;-55
2023/03/31 08:07:45;;;;;;;7.20;4.00;;;;;;;13.18;60.92;64337.75;5034076;28;20221;-57
2023/03/31 08:10:16;;;;;;;7.60;3.30;;;;;;;13.26;60.07;64346.53;5032572;28;20699;-58
2023/03/31 08:12:42;;;;;;;6.87;3.60;;;;;;;13.51;61.96;64370.34;5032542;28;20198;-58
2023/03/31 08:15:07;;;;;;;7.37;3.70;;;;;;;13.83;60.38;64408.00;5031407;28;20218;-59
2023/03/31 08:17:33;;;;;;;8.13;3.43;;;;;;;14.00;59.89;64429.22;5033393;28;20194;-57
2023/03/31 08:19:58;;;;;;;5.23;2.80;;;;;;;13.98;57.82;64425.03;5033552;28;20287;-58
2023/03/31 08:22:24;;;;;;;5.63;2.35;;;;;;;13.77;57.03;64401.44;5033408;28;20185;-58
2023/03/31 08:24:49;;;;;;;5.10;2.90;;;;;;;13.57;57.20;64379.47;5032152;28;20210;-54
2023/03/31 08:27:15;;;;;;;7.20;3.13;;;;;;;13.58;56.98;64383.66;5032616;28;20190;-55
2023/03/31 08:29:41;;;;;;;5.30;3.03;;;;;;;13.68;56.92;64391.53;5033778;28;20214;-57
2023/03/31 08:32:06;;;;;;;6.97;3.13;;;;;;;13.81;56.94;64405.81;5033496;28;20190;-56
2023/03/31 08:34:32;;;;;;;8.23;2.97;;;;;;;14.07;56.31;64437.47;5033654;28;20206;-55
2023/03/31 08:36:57;;;;;;;3.47;2.40;;;;;;;13.97;55.55;64420.84;5033352;28;20186;-56
2023/03/31 08:39:23;;;;;;;5.80;2.45;;;;;;;13.91;54.57;64416.81;5033307;28;20718;-55
2023/03/31 08:42:06;;;;;;;3.77;2.13;;;;;;;13.59;55.42;64381.66;5015603;28;20231;-54
2023/03/31 08:44:46;;;;;;;3.60;2.50;;;;;;;13.53;54.70;64375.09;5033414;28;20213;-53
2023/03/31 08:47:17;;;;;;;7.22;1.95;;;;;;;13.26;55.20;64346.53;5033305;28;20193;-55
2023/03/31 08:49:51;;;;;;;7.80;2.33;;;;;;;13.87;53.95;64414.94;5033609;28;20206;-58
2023/03/31 08:52:31;;;;;;;4.30;2.40;;;;;;;13.83;53.02;64408.56;5033155;28;20722;-55
2023/03/31 08:55:00;;;;;;;2.43;1.77;;;;;;;13.99;53.11;64423.59;5033288;28;20213;-57
2023/03/31 08:57:42;;;;;;;3.43;2.40;;;;;;;13.92;53.11;64417.88;5033236;28;20209;-54
2023/03/31 09:00:18;;;;;;;4.47;2.57;;;;;;;13.83;53.84;64410.56;5033025;28;20210;-54
2023/03/31 09:02:59;;;;;;;7.55;3.28;;;;;;;13.93;52.94;64421.53;5033085;28;20181;-55
2023/03/31 09:05:54;;;;;;;3.67;2.17;;;;;;;14.03;52.60;64432.50;5032865;28;20602;-59
2023/03/31 09:08:30;;;;;;;8.03;1.90;;;;;;;14.01;51.70;64428.34;5032999;28;20556;-56
2023/03/31 09:11:06;;;;;;;3.87;2.17;;;;;;;13.99;52.36;64428.13;5032939;28;20240;-59
2023/03/31 09:13:56;;;;;;;10.93;2.90;;;;;;;14.00;51.91;64424.13;5032563;28;20185;-55
2023/03/31 09:16:54;;;;;;;5.10;2.50;;;;;;;13.97;52.18;64425.94;5032824;28;20240;-60
2023/03/31 09:19:40;;;;;;;6.70;1.97;;;;;;;13.92;51.80;64417.88;5032757;28;20272;-59
2023/03/31 09:22:14;;;;;;;8.32;1.90;;;;;;;13.98;51.21;64425.03;5032597;28;20312;-58
2023/03/31 09:24:58;;;;;;;4.18;1.80;;;;;;;13.28;51.07;64348.75;5032642;28;20239;-56
2023/03/31 09:27:27;;;;;;;5.90;1.97;;;;;;;14.08;50.65;64435.47;5032484;28;20265;-53
2023/03/31 09:30:00;;;;;;;3.53;2.07;;;;;;;14.18;50.68;64443.94;5032576;28;20293;-58
2023/03/31 09:32:30;;;;;;;5.55;1.98;;;;;;;14.29;49.39;64459.13;5032377;28;20344;-53
2023/03/31 09:35:20;;;;;;;8.63;2.00;;;;;;;14.72;49.04;64508.34;5032630;28;20694;-59
2023/03/31 09:37:47;;;;;;;5.30;2.20;;;;;;;14.67;48.88;64500.31;5032163;28;20206;-56
2023/03/31 09:40:17;;;;;;;7.60;2.97;;;;;;;15.13;48.37;64553.41;5032279;28;20206;-57
2023/03/31 09:42:44;;;;;;;8.80;4.55;;;;;;;15.57;47.07;64598.75;5032306;28;20610;-53
2023/03/31 09:45:15;;;;;;;5.38;2.17;;;;;;;15.43;46.91;64582.81;5032352;28;20238;-59
2023/03/31 09:47:45;;;;;;;7.10;3.08;;;;;;;15.67;46.18;64606.66;5032179;28;20297;-58
2023/03/31 09:50:11;;;;;;;4.57;1.60;;;;;;;15.54;45.92;64595.44;5032063;28;20254;-57
2023/03/31 09:52:40;;;;;;;2.92;1.60;;;;;;;15.65;46.18;64604.47;5032098;28;20201;-61
2023/03/31 09:55:17;;;;;;;10.70;2.20;;;;;;;15.82;45.73;64623.16;5032316;28;20237;-51
2023/03/31 09:57:43;;;;;;;4.95;1.63;;;;;;;16.14;45.20;64660.91;5032284;28;20663;-53
2023/03/31 10:00:12;;;;;;;7.57;1.92;;;;;;;16.26;45.00;64671.56;5032260;28;20726;-53
2023/03/31 10:02:41;;;;;;;4.10;2.10;;;;;;;16.33;44.71;64681.28;5014185;28;20194;-55
2023/03/31 10:05:23;;;;;;;3.95;1.80;;;;;;;16.28;44.55;64673.78;5031886;28;20716;-53
2023/03/31 10:07:48;;;;;;;5.43;1.90;;;;;;;16.59;44.23;64707.38;5031877;28;20259;-54
2023/03/31 10:10:29;;;;;;;5.30;1.90;;;;;;;16.72;44.00;64724.78;5031787;28;20214;-56
2023/03/31 10:12:55;;;;;;;3.58;1.70;;;;;;;16.78;43.73;64728.31;5031884;28;20186;-57
2023/03/31 10:15:25;;;;;;;4.85;2.38;;;;;;;16.73;43.23;64728.44;5032023;28;20218;-56
2023/03/31 10:17:51;;;;;;;5.00;2.22;;;;;;;17.03;48.89;64760.38;5031603;28;20186;-59
2023/03/31 10:20:26;;;;;;;7.43;1.98;;;;;;;17.55;45.60;64812.59;5031993;28;20280;-56
2023/03/31 10:22:51;;;;;;;7.25;1.92;;;;;;;17.73;44.33;64831.88;5031743;28;20204;-57
2023/03/31 10:25:23;;;;;;;4.55;2.10;;;;;;;17.91;43.81;64852.28;5031096;28;20222;-57
2023/03/31 10:27:52;;;;;;;5.50;2.72;;;;;;;17.87;44.07;64849.88;5013797;28;20210;-60
2023/03/31 10:30:36;;;;;;;7.35;2.35;;;;;;;18.43;46.53;64909.09;5031609;28;20206;-61
2023/03/31 10:33:16;;;;;;;3.90;1.75;;;;;;;18.10;42.88;64873.22;5031572;28;20201;-55
2023/03/31 10:35:42;;;;;;;4.07;1.70;;;;;;;18.60;41.48;64927.84;5031382;28;20305;-54
2023/03/31 10:38:15;;;;;;;6.30;1.98;;;;;;;18.47;42.57;64912.94;5031419;28;20701;-57
2023/03/31 10:40:56;;;;;;;6.35;2.10;;;;;;;18.46;41.53;64914.94;5031869;28;20712;-59
2023/03/31 10:43:33;;;;;;;3.35;1.75;;;;;;;18.23;42.13;64890.13;5031529;28;20186;-57
2023/03/31 10:45:59;;;;;;;5.00;2.00;;;;;;;17.23;42.01;64782.94;5031547;28;20251;-60
2023/03/31 10:48:30;;;;;;;5.80;2.17;;;;;;;16.85;43.40;64738.00;5031492;28;20205;-55
2023/03/31 10:51:19;;;;;;;4.80;1.63;;;;;;;16.85;43.09;64738.53;5031271;28;20703;-55
2023/03/31 10:53:47;;;;;;;3.20;1.77;;;;;;;16.62;44.11;64713.22;5031444;28;20190;-55
2023/03/31 10:56:16;;;;;;;4.22;1.90;;;;;;;16.66;44.43;64717.63;5031154;28;20201;-55
2023/03/31 10:59:17;;;;;;;4.68;2.10;;;;;;;16.52;44.07;64699.69;5031157;28;20201;-55
2023/03/31 11:02:11;;;;;;;5.85;2.55;;;;;;;16.51;43.78;64701.66;5031269;28;20181;-54
2023/03/31 11:05:14;;;;;;;5.05;2.25;;;;;;;16.61;44.37;64710.13;5030835;28;20261;-57
2023/03/31 11:07:53;;;;;;;5.80;1.90;;;;;;;16.61;43.45;64712.66;5031182;28;20281;-58
2023/03/31 11:10:40;;;;;;;4.25;1.73;;;;;;;16.46;43.62;64696.13;5031684;28;20258;-57
2023/03/31 11:13:32;;;;;;;4.50;2.05;;;;;;;16.38;43.88;64686.78;5031769;28;20182;-58
2023/03/31 11:16:17;;;;;;;3.53;1.60;;;;;;;16.09;43.93;64652.88;5031454;28;20641;-53
2023/03/31 11:19:10;;;;;;;5.55;2.20;;;;;;;16.14;45.12;64660.91;5030900;28;20190;-56
2023/03/31 11:21:50;;;;;;;4.55;1.80;;;;;;;16.33;44.36;64678.72;5031067;28;20734;-59
2023/03/31 11:24:34;;;;;;;4.03;2.22;;;;;;;16.34;45.44;64680.38;5031070;28;20245;-59
2023/03/31 11:27:15;;;;;;;4.85;3.20;;;;;;;16.43;45.33;64689.72;5031167;28;20188;-56
2023/03/31 11:29:40;;;;;;;3.63;1.83;;;;;;;16.61;44.05;64709.56;5031109;28;20213;-53
2023/03/31 11:32:43;;;;;;;7.78;2.83;;;;;;;16.59;44.38;64710.47;5030861;28;20201;-58
2023/03/31 11:35:58;;;;;;;6.68;2.05;;;;;;;16.49;44.26;64698.91;5013417;28;20210;-57
2023/03/31 11:38:47;;;;;;;2.72;2.25;;;;;;;16.51;44.51;64696.56;4956651;28;20570;-53
2023/03/31 11:41:32;;;;;;;3.78;1.80;;;;;;;16.51;43.79;64701.09;5034220;28;20194;-56
2023/03/31 11:44:03;;;;;;;3.13;1.55;;;;;;;16.53;44.00;64701.31;5034166;28;20220;-56
2023/03/31 11:46:52;;;;;;;9.00;1.92;;;;;;;16.52;44.98;64702.75;5034219;28;20186;-54
2023/03/31 11:49:29;;;;;;;4.47;2.30;;;;;;;16.57;45.59;64705.16;5034118;28;20229;-53
2023/03/31 11:52:05;;;;;;;3.53;2.08;;;;;;;17.80;46.88;64840.16;5034232;28;20186;-56